sensor_id;sensor_type;location;lat;lon;timestamp;P1;durP1;ratioP1;P2;durP2;ratioP2
15958;SDS011;8078;47.822;9.402;2022-10-31T00:01:58;17.48;;;6.82;;
15958;SDS011;8078;47.822;9.402;2022-10-31T00:04:23;23.45;;;8.20;;
15958;SDS011;8078;47.822;9.402;2022-10-31T00:06:49;17.00;;;7.90;;
15958;SDS011;8078;47.822;9.402;2022-10-31T00:09:14;14.82;;;7.97;;
15958;SDS011;8078;47.822;9.402;2022-10-31T00:11:40;22.63;;;9.80;;
15958;SDS011;8078;47.822;9.402;2022-10-31T00:14:05;21.52;;;10.13;;
15958;SDS011;8078;47.822;9.402;2022-10-31T00:16:31;22.13;;;9.88;;
15958;SDS011;8078;47.822;9.402;2022-10-31T00:19:02;20.40;;;10.30;;
15958;SDS011;8078;47.822;9.402;2022-10-31T00:21:30;18.67;;;11.18;;
15958;SDS011;8078;47.822;9.402;2022-10-31T00:23:57;23.23;;;11.50;;
15958;SDS011;8078;47.822;9.402;2022-10-31T00:26:23;21.88;;;11.50;;
15958;SDS011;8078;47.822;9.402;2022-10-31T00:28:49;23.05;;;11.80;;
15958;SDS011;8078;47.822;9.402;2022-10-31T00:31:16;25.48;;;14.57;;
15958;SDS011;8078;47.822;9.402;2022-10-31T00:33:42;25.15;;;12.88;;
15958;SDS011;8078;47.822;9.402;2022-10-31T00:36:10;23.17;;;12.40;;
15958;SDS011;8078;47.822;9.402;2022-10-31T00:38:37;21.63;;;11.70;;
15958;SDS011;8078;47.822;9.402;2022-10-31T00:41:03;21.40;;;10.57;;
15958;SDS011;8078;47.822;9.402;2022-10-31T00:43:29;18.95;;;10.57;;
15958;SDS011;8078;47.822;9.402;2022-10-31T00:45:54;22.58;;;10.38;;
15958;SDS011;8078;47.822;9.402;2022-10-31T00:48:20;24.63;;;9.57;;
15958;SDS011;8078;47.822;9.402;2022-10-31T00:50:45;17.08;;;9.18;;
15958;SDS011;8078;47.822;9.402;2022-10-31T00:53:11;20.77;;;10.13;;
15958;SDS011;8078;47.822;9.402;2022-10-31T00:55:36;24.48;;;10.35;;
15958;SDS011;8078;47.822;9.402;2022-10-31T00:58:02;19.98;;;10.90;;
15958;SDS011;8078;47.822;9.402;2022-10-31T01:00:28;22.88;;;11.45;;
15958;SDS011;8078;47.822;9.402;2022-10-31T01:02:54;15.65;;;10.50;;
15958;SDS011;8078;47.822;9.402;2022-10-31T01:05:19;21.27;;;10.60;;
15958;SDS011;8078;47.822;9.402;2022-10-31T01:07:45;27.30;;;10.65;;
15958;SDS011;8078;47.822;9.402;2022-10-31T01:10:11;25.25;;;10.77;;
15958;SDS011;8078;47.822;9.402;2022-10-31T01:12:37;18.15;;;9.82;;
15958;SDS011;8078;47.822;9.402;2022-10-31T01:15:03;19.67;;;9.68;;
15958;SDS011;8078;47.822;9.402;2022-10-31T01:17:29;18.92;;;9.02;;
15958;SDS011;8078;47.822;9.402;2022-10-31T01:19:54;21.30;;;10.27;;
15958;SDS011;8078;47.822;9.402;2022-10-31T01:22:20;22.38;;;10.45;;
15958;SDS011;8078;47.822;9.402;2022-10-31T01:24:45;19.10;;;9.25;;
15958;SDS011;8078;47.822;9.402;2022-10-31T01:27:11;17.83;;;9.57;;
15958;SDS011;8078;47.822;9.402;2022-10-31T01:29:36;17.35;;;8.63;;
15958;SDS011;8078;47.822;9.402;2022-10-31T01:32:02;21.92;;;8.35;;
15958;SDS011;8078;47.822;9.402;2022-10-31T01:34:28;17.38;;;8.90;;
15958;SDS011;8078;47.822;9.402;2022-10-31T01:36:53;16.92;;;8.60;;
15958;SDS011;8078;47.822;9.402;2022-10-31T01:39:19;17.10;;;8.30;;
15958;SDS011;8078;47.822;9.402;2022-10-31T01:41:46;19.30;;;8.00;;
15958;SDS011;8078;47.822;9.402;2022-10-31T01:49:35;14.70;;;7.40;;
15958;SDS011;8078;47.822;9.402;2022-10-31T01:52:09;16.25;;;8.15;;
15958;SDS011;8078;47.822;9.402;2022-10-31T01:57:23;17.75;;;7.55;;
15958;SDS011;8078;47.822;9.402;2022-10-31T01:59:51;13.80;;;7.38;;
15958;SDS011;8078;47.822;9.402;2022-10-31T02:02:20;24.40;;;8.60;;
15958;SDS011;8078;47.822;9.402;2022-10-31T02:04:45;19.67;;;8.05;;
15958;SDS011;8078;47.822;9.402;2022-10-31T02:07:14;19.52;;;7.68;;
15958;SDS011;8078;47.822;9.402;2022-10-31T02:09:43;15.45;;;6.93;;
15958;SDS011;8078;47.822;9.402;2022-10-31T02:12:10;22.48;;;6.95;;
15958;SDS011;8078;47.822;9.402;2022-10-31T02:14:37;13.95;;;6.20;;
15958;SDS011;8078;47.822;9.402;2022-10-31T02:17:03;22.45;;;6.95;;
15958;SDS011;8078;47.822;9.402;2022-10-31T02:22:21;13.02;;;6.43;;
15958;SDS011;8078;47.822;9.402;2022-10-31T02:30:24;12.48;;;6.35;;
15958;SDS011;8078;47.822;9.402;2022-10-31T02:33:25;15.93;;;6.13;;
15958;SDS011;8078;47.822;9.402;2022-10-31T02:41:10;18.90;;;6.13;;
15958;SDS011;8078;47.822;9.402;2022-10-31T02:43:48;15.80;;;5.75;;
15958;SDS011;8078;47.822;9.402;2022-10-31T02:46:44;16.27;;;6.85;;
15958;SDS011;8078;47.822;9.402;2022-10-31T02:49:23;13.70;;;5.88;;
15958;SDS011;8078;47.822;9.402;2022-10-31T02:51:54;20.00;;;6.57;;
15958;SDS011;8078;47.822;9.402;2022-10-31T02:54:24;12.40;;;6.10;;
15958;SDS011;8078;47.822;9.402;2022-10-31T02:56:57;13.50;;;5.68;;
15958;SDS011;8078;47.822;9.402;2022-10-31T02:59:27;13.50;;;6.22;;
15958;SDS011;8078;47.822;9.402;2022-10-31T03:02:05;16.25;;;7.18;;
15958;SDS011;8078;47.822;9.402;2022-10-31T03:18:56;15.35;;;7.85;;
15958;SDS011;8078;47.822;9.402;2022-10-31T03:21:30;17.70;;;8.35;;
15958;SDS011;8078;47.822;9.402;2022-10-31T03:24:01;14.70;;;8.75;;
15958;SDS011;8078;47.822;9.402;2022-10-31T03:26:30;20.02;;;8.52;;
15958;SDS011;8078;47.822;9.402;2022-10-31T03:28:57;16.60;;;8.35;;
15958;SDS011;8078;47.822;9.402;2022-10-31T03:31:34;22.77;;;8.63;;
15958;SDS011;8078;47.822;9.402;2022-10-31T03:34:04;18.50;;;8.38;;
15958;SDS011;8078;47.822;9.402;2022-10-31T03:36:33;18.38;;;8.00;;
15958;SDS011;8078;47.822;9.402;2022-10-31T03:39:00;15.70;;;8.55;;
15958;SDS011;8078;47.822;9.402;2022-10-31T03:41:30;15.55;;;7.65;;
15958;SDS011;8078;47.822;9.402;2022-10-31T03:44:00;19.55;;;7.72;;
15958;SDS011;8078;47.822;9.402;2022-10-31T03:46:31;15.02;;;7.40;;
15958;SDS011;8078;47.822;9.402;2022-10-31T03:48:57;17.48;;;7.80;;
15958;SDS011;8078;47.822;9.402;2022-10-31T03:51:30;16.80;;;7.80;;
15958;SDS011;8078;47.822;9.402;2022-10-31T03:54:08;16.67;;;6.75;;
15958;SDS011;8078;47.822;9.402;2022-10-31T03:56:46;14.32;;;7.82;;
15958;SDS011;8078;47.822;9.402;2022-10-31T04:02:16;29.33;;;12.60;;
15958;SDS011;8078;47.822;9.402;2022-10-31T04:04:45;21.95;;;11.32;;
15958;SDS011;8078;47.822;9.402;2022-10-31T04:07:13;20.58;;;11.38;;
15958;SDS011;8078;47.822;9.402;2022-10-31T04:09:40;28.55;;;16.17;;
15958;SDS011;8078;47.822;9.402;2022-10-31T04:12:08;26.50;;;15.15;;
15958;SDS011;8078;47.822;9.402;2022-10-31T04:14:40;18.88;;;12.88;;
15958;SDS011;8078;47.822;9.402;2022-10-31T04:17:09;25.40;;;13.93;;
15958;SDS011;8078;47.822;9.402;2022-10-31T04:19:40;36.95;;;18.67;;
15958;SDS011;8078;47.822;9.402;2022-10-31T04:22:06;35.90;;;20.67;;
15958;SDS011;8078;47.822;9.402;2022-10-31T04:24:31;45.47;;;22.00;;
15958;SDS011;8078;47.822;9.402;2022-10-31T04:26:57;39.60;;;21.45;;
15958;SDS011;8078;47.822;9.402;2022-10-31T04:29:22;37.17;;;21.50;;
15958;SDS011;8078;47.822;9.402;2022-10-31T04:31:48;38.42;;;20.75;;
15958;SDS011;8078;47.822;9.402;2022-10-31T04:34:13;42.72;;;23.35;;
15958;SDS011;8078;47.822;9.402;2022-10-31T04:36:39;26.13;;;9.48;;
15958;SDS011;8078;47.822;9.402;2022-10-31T04:39:04;17.30;;;8.90;;
15958;SDS011;8078;47.822;9.402;2022-10-31T04:41:30;14.35;;;8.68;;
15958;SDS011;8078;47.822;9.402;2022-10-31T04:43:56;19.63;;;7.40;;
15958;SDS011;8078;47.822;9.402;2022-10-31T04:46:21;15.10;;;7.15;;
15958;SDS011;8078;47.822;9.402;2022-10-31T04:48:47;16.60;;;7.05;;
15958;SDS011;8078;47.822;9.402;2022-10-31T04:51:13;12.60;;;6.95;;
15958;SDS011;8078;47.822;9.402;2022-10-31T04:53:38;17.10;;;7.45;;
15958;SDS011;8078;47.822;9.402;2022-10-31T04:56:04;17.85;;;7.68;;
15958;SDS011;8078;47.822;9.402;2022-10-31T04:58:30;16.92;;;7.50;;
15958;SDS011;8078;47.822;9.402;2022-10-31T05:00:56;17.83;;;7.55;;
15958;SDS011;8078;47.822;9.402;2022-10-31T05:03:21;17.58;;;7.40;;
15958;SDS011;8078;47.822;9.402;2022-10-31T05:05:47;20.13;;;8.05;;
15958;SDS011;8078;47.822;9.402;2022-10-31T05:08:13;17.15;;;6.70;;
15958;SDS011;8078;47.822;9.402;2022-10-31T05:10:39;14.80;;;6.47;;
15958;SDS011;8078;47.822;9.402;2022-10-31T05:13:04;15.23;;;7.28;;
15958;SDS011;8078;47.822;9.402;2022-10-31T05:15:30;18.88;;;7.43;;
15958;SDS011;8078;47.822;9.402;2022-10-31T05:17:56;20.92;;;10.25;;
15958;SDS011;8078;47.822;9.402;2022-10-31T05:20:23;27.80;;;13.32;;
15958;SDS011;8078;47.822;9.402;2022-10-31T05:22:51;32.80;;;15.82;;
15958;SDS011;8078;47.822;9.402;2022-10-31T05:25:18;23.45;;;10.88;;
15958;SDS011;8078;47.822;9.402;2022-10-31T05:27:46;23.27;;;9.75;;
15958;SDS011;8078;47.822;9.402;2022-10-31T05:30:13;11.88;;;7.60;;
15958;SDS011;8078;47.822;9.402;2022-10-31T05:32:41;15.75;;;7.45;;
15958;SDS011;8078;47.822;9.402;2022-10-31T05:35:10;22.88;;;10.27;;
15958;SDS011;8078;47.822;9.402;2022-10-31T05:37:37;24.08;;;12.18;;
15958;SDS011;8078;47.822;9.402;2022-10-31T05:40:03;23.25;;;11.40;;
15958;SDS011;8078;47.822;9.402;2022-10-31T05:42:30;18.33;;;9.57;;
15958;SDS011;8078;47.822;9.402;2022-10-31T05:44:56;15.60;;;8.85;;
15958;SDS011;8078;47.822;9.402;2022-10-31T05:47:21;25.42;;;10.27;;
15958;SDS011;8078;47.822;9.402;2022-10-31T05:49:47;16.00;;;8.32;;
15958;SDS011;8078;47.822;9.402;2022-10-31T05:52:13;13.40;;;6.97;;
15958;SDS011;8078;47.822;9.402;2022-10-31T05:54:39;19.40;;;7.60;;
15958;SDS011;8078;47.822;9.402;2022-10-31T05:57:04;18.13;;;8.40;;
15958;SDS011;8078;47.822;9.402;2022-10-31T05:59:30;23.05;;;8.65;;
15958;SDS011;8078;47.822;9.402;2022-10-31T06:01:55;19.00;;;9.55;;
15958;SDS011;8078;47.822;9.402;2022-10-31T06:04:21;14.10;;;8.45;;
15958;SDS011;8078;47.822;9.402;2022-10-31T06:06:47;14.90;;;7.95;;
15958;SDS011;8078;47.822;9.402;2022-10-31T06:09:12;19.40;;;8.00;;
15958;SDS011;8078;47.822;9.402;2022-10-31T06:11:38;18.23;;;7.78;;
15958;SDS011;8078;47.822;9.402;2022-10-31T06:14:04;19.40;;;7.95;;
15958;SDS011;8078;47.822;9.402;2022-10-31T06:16:30;22.38;;;8.70;;
15958;SDS011;8078;47.822;9.402;2022-10-31T06:18:55;22.33;;;8.48;;
15958;SDS011;8078;47.822;9.402;2022-10-31T06:21:21;23.15;;;8.70;;
15958;SDS011;8078;47.822;9.402;2022-10-31T06:23:47;19.23;;;7.90;;
15958;SDS011;8078;47.822;9.402;2022-10-31T06:26:12;18.35;;;7.50;;
15958;SDS011;8078;47.822;9.402;2022-10-31T06:28:38;14.90;;;8.00;;
15958;SDS011;8078;47.822;9.402;2022-10-31T06:31:03;13.35;;;7.20;;
15958;SDS011;8078;47.822;9.402;2022-10-31T06:33:29;12.05;;;7.50;;
15958;SDS011;8078;47.822;9.402;2022-10-31T06:35:55;14.85;;;8.10;;
15958;SDS011;8078;47.822;9.402;2022-10-31T06:38:20;15.57;;;7.47;;
15958;SDS011;8078;47.822;9.402;2022-10-31T06:40:46;20.15;;;8.27;;
15958;SDS011;8078;47.822;9.402;2022-10-31T06:43:11;17.30;;;7.88;;
15958;SDS011;8078;47.822;9.402;2022-10-31T06:45:39;17.83;;;9.30;;
15958;SDS011;8078;47.822;9.402;2022-10-31T06:48:05;16.27;;;8.60;;
15958;SDS011;8078;47.822;9.402;2022-10-31T06:50:32;16.15;;;8.05;;
15958;SDS011;8078;47.822;9.402;2022-10-31T06:52:58;16.27;;;8.57;;
15958;SDS011;8078;47.822;9.402;2022-10-31T06:55:24;17.58;;;7.57;;
15958;SDS011;8078;47.822;9.402;2022-10-31T06:57:51;13.18;;;7.28;;
15958;SDS011;8078;47.822;9.402;2022-10-31T07:00:24;12.98;;;7.57;;
15958;SDS011;8078;47.822;9.402;2022-10-31T07:02:52;16.55;;;8.82;;
15958;SDS011;8078;47.822;9.402;2022-10-31T07:05:19;15.55;;;8.60;;
15958;SDS011;8078;47.822;9.402;2022-10-31T07:07:44;21.05;;;8.93;;
15958;SDS011;8078;47.822;9.402;2022-10-31T07:10:10;15.75;;;9.27;;
15958;SDS011;8078;47.822;9.402;2022-10-31T07:12:35;23.75;;;10.32;;
15958;SDS011;8078;47.822;9.402;2022-10-31T07:15:01;24.00;;;9.18;;
15958;SDS011;8078;47.822;9.402;2022-10-31T07:17:27;18.00;;;9.35;;
15958;SDS011;8078;47.822;9.402;2022-10-31T07:19:52;20.05;;;9.10;;
15958;SDS011;8078;47.822;9.402;2022-10-31T07:22:18;16.50;;;9.57;;
15958;SDS011;8078;47.822;9.402;2022-10-31T07:24:43;19.90;;;10.60;;
15958;SDS011;8078;47.822;9.402;2022-10-31T07:27:09;17.38;;;8.88;;
15958;SDS011;8078;47.822;9.402;2022-10-31T07:29:34;14.75;;;8.38;;
15958;SDS011;8078;47.822;9.402;2022-10-31T07:32:00;20.52;;;8.43;;
15958;SDS011;8078;47.822;9.402;2022-10-31T07:34:26;13.77;;;7.60;;
15958;SDS011;8078;47.822;9.402;2022-10-31T07:36:52;22.02;;;8.20;;
15958;SDS011;8078;47.822;9.402;2022-10-31T07:39:17;21.65;;;8.73;;
15958;SDS011;8078;47.822;9.402;2022-10-31T07:41:43;19.77;;;8.82;;
15958;SDS011;8078;47.822;9.402;2022-10-31T07:44:08;19.30;;;8.43;;
15958;SDS011;8078;47.822;9.402;2022-10-31T07:46:34;19.42;;;8.65;;
15958;SDS011;8078;47.822;9.402;2022-10-31T07:48:59;18.48;;;8.45;;
15958;SDS011;8078;47.822;9.402;2022-10-31T07:51:25;15.82;;;7.13;;
15958;SDS011;8078;47.822;9.402;2022-10-31T07:53:51;15.75;;;7.07;;
15958;SDS011;8078;47.822;9.402;2022-10-31T07:56:17;13.85;;;5.03;;
15958;SDS011;8078;47.822;9.402;2022-10-31T07:58:42;13.02;;;4.78;;
15958;SDS011;8078;47.822;9.402;2022-10-31T08:01:08;12.35;;;4.93;;
15958;SDS011;8078;47.822;9.402;2022-10-31T08:03:33;13.98;;;5.25;;
15958;SDS011;8078;47.822;9.402;2022-10-31T08:05:59;13.75;;;6.07;;
15958;SDS011;8078;47.822;9.402;2022-10-31T08:08:24;17.08;;;5.43;;
15958;SDS011;8078;47.822;9.402;2022-10-31T08:10:53;15.95;;;5.63;;
15958;SDS011;8078;47.822;9.402;2022-10-31T08:13:19;13.07;;;4.68;;
15958;SDS011;8078;47.822;9.402;2022-10-31T08:15:45;17.80;;;4.70;;
15958;SDS011;8078;47.822;9.402;2022-10-31T08:18:15;13.07;;;5.35;;
15958;SDS011;8078;47.822;9.402;2022-10-31T08:20:41;12.30;;;4.93;;
15958;SDS011;8078;47.822;9.402;2022-10-31T08:23:08;16.90;;;5.32;;
15958;SDS011;8078;47.822;9.402;2022-10-31T08:25:34;9.80;;;3.92;;
15958;SDS011;8078;47.822;9.402;2022-10-31T08:28:00;11.05;;;4.20;;
15958;SDS011;8078;47.822;9.402;2022-10-31T08:30:27;11.43;;;4.40;;
15958;SDS011;8078;47.822;9.402;2022-10-31T08:33:14;11.77;;;4.47;;
15958;SDS011;8078;47.822;9.402;2022-10-31T08:35:41;9.25;;;3.33;;
15958;SDS011;8078;47.822;9.402;2022-10-31T08:38:08;10.45;;;3.72;;
15958;SDS011;8078;47.822;9.402;2022-10-31T08:40:35;8.43;;;3.58;;
15958;SDS011;8078;47.822;9.402;2022-10-31T08:43:06;16.77;;;4.38;;
15958;SDS011;8078;47.822;9.402;2022-10-31T08:45:38;9.30;;;3.40;;
15958;SDS011;8078;47.822;9.402;2022-10-31T08:48:05;10.50;;;3.47;;
15958;SDS011;8078;47.822;9.402;2022-10-31T08:50:34;11.93;;;3.30;;
15958;SDS011;8078;47.822;9.402;2022-10-31T08:53:01;7.85;;;3.25;;
15958;SDS011;8078;47.822;9.402;2022-10-31T08:55:28;9.60;;;3.33;;
15958;SDS011;8078;47.822;9.402;2022-10-31T08:57:57;13.15;;;3.03;;
15958;SDS011;8078;47.822;9.402;2022-10-31T09:00:23;10.75;;;3.03;;
15958;SDS011;8078;47.822;9.402;2022-10-31T09:02:56;8.27;;;3.05;;
15958;SDS011;8078;47.822;9.402;2022-10-31T09:05:25;9.63;;;2.85;;
15958;SDS011;8078;47.822;9.402;2022-10-31T09:07:54;7.15;;;2.78;;
15958;SDS011;8078;47.822;9.402;2022-10-31T09:10:22;8.63;;;2.95;;
15958;SDS011;8078;47.822;9.402;2022-10-31T09:12:47;11.05;;;2.92;;
15958;SDS011;8078;47.822;9.402;2022-10-31T09:15:20;8.93;;;2.60;;
15958;SDS011;8078;47.822;9.402;2022-10-31T09:17:46;7.55;;;3.05;;
15958;SDS011;8078;47.822;9.402;2022-10-31T09:20:12;8.88;;;2.67;;
15958;SDS011;8078;47.822;9.402;2022-10-31T09:22:38;6.43;;;2.85;;
15958;SDS011;8078;47.822;9.402;2022-10-31T09:25:04;9.20;;;2.67;;
15958;SDS011;8078;47.822;9.402;2022-10-31T09:27:29;15.75;;;2.83;;
15958;SDS011;8078;47.822;9.402;2022-10-31T09:29:55;10.45;;;3.30;;
15958;SDS011;8078;47.822;9.402;2022-10-31T09:32:20;10.57;;;2.95;;
15958;SDS011;8078;47.822;9.402;2022-10-31T09:34:46;12.48;;;3.00;;
15958;SDS011;8078;47.822;9.402;2022-10-31T09:37:11;11.45;;;3.13;;
15958;SDS011;8078;47.822;9.402;2022-10-31T09:39:37;7.85;;;2.95;;
15958;SDS011;8078;47.822;9.402;2022-10-31T09:42:14;9.50;;;3.20;;
15958;SDS011;8078;47.822;9.402;2022-10-31T09:45:06;7.65;;;2.60;;
15958;SDS011;8078;47.822;9.402;2022-10-31T09:50:49;8.77;;;2.90;;
15958;SDS011;8078;47.822;9.402;2022-10-31T09:53:32;12.88;;;3.15;;
15958;SDS011;8078;47.822;9.402;2022-10-31T09:56:09;9.45;;;3.00;;
15958;SDS011;8078;47.822;9.402;2022-10-31T09:58:40;7.43;;;3.10;;
15958;SDS011;8078;47.822;9.402;2022-10-31T10:01:22;12.98;;;3.10;;
15958;SDS011;8078;47.822;9.402;2022-10-31T10:09:52;10.00;;;2.65;;
15958;SDS011;8078;47.822;9.402;2022-10-31T10:18:33;8.23;;;2.83;;
15958;SDS011;8078;47.822;9.402;2022-10-31T10:21:05;10.40;;;3.08;;
15958;SDS011;8078;47.822;9.402;2022-10-31T10:23:58;8.32;;;2.97;;
15958;SDS011;8078;47.822;9.402;2022-10-31T10:26:43;9.10;;;2.65;;
15958;SDS011;8078;47.822;9.402;2022-10-31T10:29:27;8.82;;;2.65;;
15958;SDS011;8078;47.822;9.402;2022-10-31T10:32:09;9.45;;;3.15;;
15958;SDS011;8078;47.822;9.402;2022-10-31T10:34:43;9.63;;;2.95;;
15958;SDS011;8078;47.822;9.402;2022-10-31T10:37:22;11.02;;;3.30;;
15958;SDS011;8078;47.822;9.402;2022-10-31T10:40:06;9.55;;;4.20;;
15958;SDS011;8078;47.822;9.402;2022-10-31T10:42:39;9.27;;;3.75;;
15958;SDS011;8078;47.822;9.402;2022-10-31T10:45:23;7.22;;;4.00;;
15958;SDS011;8078;47.822;9.402;2022-10-31T10:50:50;4.93;;;3.33;;
15958;SDS011;8078;47.822;9.402;2022-10-31T10:59:25;7.63;;;2.58;;
15958;SDS011;8078;47.822;9.402;2022-10-31T11:01:52;9.70;;;2.70;;
15958;SDS011;8078;47.822;9.402;2022-10-31T11:04:39;12.30;;;2.80;;
15958;SDS011;8078;47.822;9.402;2022-10-31T11:07:05;7.63;;;2.63;;
15958;SDS011;8078;47.822;9.402;2022-10-31T11:09:33;6.80;;;2.75;;
15958;SDS011;8078;47.822;9.402;2022-10-31T11:12:05;7.72;;;2.65;;
15958;SDS011;8078;47.822;9.402;2022-10-31T11:14:43;5.60;;;3.03;;
15958;SDS011;8078;47.822;9.402;2022-10-31T11:17:23;9.48;;;2.95;;
15958;SDS011;8078;47.822;9.402;2022-10-31T11:19:59;8.05;;;2.50;;
15958;SDS011;8078;47.822;9.402;2022-10-31T11:22:30;8.65;;;2.92;;
15958;SDS011;8078;47.822;9.402;2022-10-31T11:24:55;7.95;;;2.65;;
15958;SDS011;8078;47.822;9.402;2022-10-31T11:27:22;5.72;;;2.97;;
15958;SDS011;8078;47.822;9.402;2022-10-31T11:29:50;11.25;;;2.97;;
15958;SDS011;8078;47.822;9.402;2022-10-31T11:32:26;8.10;;;3.42;;
15958;SDS011;8078;47.822;9.402;2022-10-31T11:34:53;5.72;;;3.17;;
15958;SDS011;8078;47.822;9.402;2022-10-31T11:37:25;15.20;;;6.88;;
15958;SDS011;8078;47.822;9.402;2022-10-31T11:39:53;15.20;;;7.57;;
15958;SDS011;8078;47.822;9.402;2022-10-31T11:42:25;13.05;;;7.10;;
15958;SDS011;8078;47.822;9.402;2022-10-31T11:45:01;15.10;;;7.43;;
15958;SDS011;8078;47.822;9.402;2022-10-31T11:47:42;18.25;;;8.20;;
15958;SDS011;8078;47.822;9.402;2022-10-31T11:50:15;15.77;;;7.95;;
15958;SDS011;8078;47.822;9.402;2022-10-31T11:52:46;14.52;;;6.53;;
15958;SDS011;8078;47.822;9.402;2022-10-31T12:08:30;20.63;;;6.97;;
15958;SDS011;8078;47.822;9.402;2022-10-31T12:11:15;11.75;;;6.88;;
15958;SDS011;8078;47.822;9.402;2022-10-31T12:16:59;10.15;;;5.03;;
15958;SDS011;8078;47.822;9.402;2022-10-31T12:19:42;16.20;;;6.35;;
15958;SDS011;8078;47.822;9.402;2022-10-31T12:25:15;11.55;;;3.78;;
15958;SDS011;8078;47.822;9.402;2022-10-31T12:30:35;8.38;;;3.15;;
15958;SDS011;8078;47.822;9.402;2022-10-31T12:38:46;8.13;;;2.30;;
15958;SDS011;8078;47.822;9.402;2022-10-31T12:51:57;11.25;;;2.78;;
15958;SDS011;8078;47.822;9.402;2022-10-31T13:05:05;11.75;;;4.03;;
15958;SDS011;8078;47.822;9.402;2022-10-31T13:10:25;10.07;;;3.53;;
15958;SDS011;8078;47.822;9.402;2022-10-31T13:12:58;9.05;;;3.83;;
15958;SDS011;8078;47.822;9.402;2022-10-31T13:15:32;11.88;;;3.72;;
15958;SDS011;8078;47.822;9.402;2022-10-31T13:18:11;10.30;;;4.30;;
15958;SDS011;8078;47.822;9.402;2022-10-31T13:20:43;9.77;;;4.28;;
15958;SDS011;8078;47.822;9.402;2022-10-31T13:23:27;9.15;;;4.15;;
15958;SDS011;8078;47.822;9.402;2022-10-31T13:25:58;7.22;;;2.38;;
15958;SDS011;8078;47.822;9.402;2022-10-31T13:28:40;6.85;;;2.92;;
15958;SDS011;8078;47.822;9.402;2022-10-31T13:31:11;9.10;;;3.13;;
15958;SDS011;8078;47.822;9.402;2022-10-31T13:33:44;9.93;;;3.60;;
15958;SDS011;8078;47.822;9.402;2022-10-31T13:36:33;7.30;;;3.30;;
15958;SDS011;8078;47.822;9.402;2022-10-31T13:45:11;10.65;;;3.45;;
15958;SDS011;8078;47.822;9.402;2022-10-31T13:47:41;11.05;;;3.70;;
15958;SDS011;8078;47.822;9.402;2022-10-31T13:53:19;10.77;;;3.78;;
15958;SDS011;8078;47.822;9.402;2022-10-31T13:55:49;9.48;;;3.40;;
15958;SDS011;8078;47.822;9.402;2022-10-31T13:58:28;12.05;;;3.60;;
15958;SDS011;8078;47.822;9.402;2022-10-31T14:00:59;9.20;;;3.55;;
15958;SDS011;8078;47.822;9.402;2022-10-31T14:03:26;8.55;;;3.42;;
15958;SDS011;8078;47.822;9.402;2022-10-31T14:05:53;8.95;;;3.13;;
15958;SDS011;8078;47.822;9.402;2022-10-31T14:08:21;7.85;;;3.47;;
15958;SDS011;8078;47.822;9.402;2022-10-31T14:10:49;10.18;;;3.50;;
15958;SDS011;8078;47.822;9.402;2022-10-31T14:13:20;7.85;;;3.08;;
15958;SDS011;8078;47.822;9.402;2022-10-31T14:18:24;6.75;;;2.75;;
15958;SDS011;8078;47.822;9.402;2022-10-31T14:20:55;9.70;;;2.45;;
15958;SDS011;8078;47.822;9.402;2022-10-31T14:31:42;8.68;;;2.88;;
15958;SDS011;8078;47.822;9.402;2022-10-31T14:34:23;9.00;;;2.85;;
15958;SDS011;8078;47.822;9.402;2022-10-31T14:45:20;8.52;;;3.45;;
15958;SDS011;8078;47.822;9.402;2022-10-31T14:48:21;7.53;;;3.15;;
15958;SDS011;8078;47.822;9.402;2022-10-31T14:51:10;4.10;;;2.83;;
15958;SDS011;8078;47.822;9.402;2022-10-31T14:53:47;9.25;;;2.85;;
15958;SDS011;8078;47.822;9.402;2022-10-31T14:56:27;9.43;;;2.40;;
15958;SDS011;8078;47.822;9.402;2022-10-31T14:58:56;9.68;;;2.40;;
15958;SDS011;8078;47.822;9.402;2022-10-31T15:01:25;5.50;;;2.67;;
15958;SDS011;8078;47.822;9.402;2022-10-31T15:06:40;8.93;;;2.85;;
15958;SDS011;8078;47.822;9.402;2022-10-31T15:11:48;7.65;;;2.55;;
15958;SDS011;8078;47.822;9.402;2022-10-31T15:14:21;5.90;;;3.00;;
15958;SDS011;8078;47.822;9.402;2022-10-31T15:16:49;5.97;;;2.67;;
15958;SDS011;8078;47.822;9.402;2022-10-31T15:19:20;8.38;;;2.40;;
15958;SDS011;8078;47.822;9.402;2022-10-31T15:21:51;8.77;;;2.35;;
15958;SDS011;8078;47.822;9.402;2022-10-31T15:24:18;6.78;;;2.60;;
15958;SDS011;8078;47.822;9.402;2022-10-31T15:26:45;10.55;;;2.47;;
15958;SDS011;8078;47.822;9.402;2022-10-31T15:29:18;7.15;;;2.40;;
15958;SDS011;8078;47.822;9.402;2022-10-31T15:37:09;7.20;;;2.60;;
15958;SDS011;8078;47.822;9.402;2022-10-31T15:39:40;7.05;;;2.50;;
15958;SDS011;8078;47.822;9.402;2022-10-31T15:42:26;11.75;;;2.95;;
15958;SDS011;8078;47.822;9.402;2022-10-31T15:44:58;10.68;;;3.15;;
15958;SDS011;8078;47.822;9.402;2022-10-31T15:47:34;7.93;;;2.80;;
15958;SDS011;8078;47.822;9.402;2022-10-31T15:50:01;4.10;;;2.40;;
15958;SDS011;8078;47.822;9.402;2022-10-31T15:52:32;11.45;;;2.75;;
15958;SDS011;8078;47.822;9.402;2022-10-31T15:55:04;8.70;;;2.45;;
15958;SDS011;8078;47.822;9.402;2022-10-31T15:57:44;7.38;;;2.88;;
15958;SDS011;8078;47.822;9.402;2022-10-31T16:03:19;9.63;;;3.47;;
15958;SDS011;8078;47.822;9.402;2022-10-31T16:05:53;7.50;;;3.25;;
15958;SDS011;8078;47.822;9.402;2022-10-31T16:10:55;8.40;;;2.70;;
15958;SDS011;8078;47.822;9.402;2022-10-31T16:16:41;10.70;;;3.63;;
15958;SDS011;8078;47.822;9.402;2022-10-31T16:19:14;7.95;;;3.10;;
15958;SDS011;8078;47.822;9.402;2022-10-31T16:22:05;8.35;;;3.42;;
15958;SDS011;8078;47.822;9.402;2022-10-31T16:24:35;11.07;;;4.18;;
15958;SDS011;8078;47.822;9.402;2022-10-31T16:27:17;7.05;;;3.78;;
15958;SDS011;8078;47.822;9.402;2022-10-31T16:29:46;11.55;;;3.42;;
15958;SDS011;8078;47.822;9.402;2022-10-31T16:34:59;8.60;;;3.60;;
15958;SDS011;8078;47.822;9.402;2022-10-31T16:37:37;11.70;;;4.40;;
15958;SDS011;8078;47.822;9.402;2022-10-31T16:40:04;8.02;;;3.63;;
15958;SDS011;8078;47.822;9.402;2022-10-31T16:42:30;11.30;;;3.75;;
15958;SDS011;8078;47.822;9.402;2022-10-31T16:44:56;8.57;;;3.97;;
15958;SDS011;8078;47.822;9.402;2022-10-31T16:47:22;11.98;;;4.03;;
15958;SDS011;8078;47.822;9.402;2022-10-31T16:49:48;14.05;;;4.13;;
15958;SDS011;8078;47.822;9.402;2022-10-31T16:52:14;7.90;;;3.88;;
15958;SDS011;8078;47.822;9.402;2022-10-31T16:54:41;13.38;;;5.00;;
15958;SDS011;8078;47.822;9.402;2022-10-31T16:57:06;9.85;;;4.70;;
15958;SDS011;8078;47.822;9.402;2022-10-31T16:59:41;11.27;;;5.03;;
15958;SDS011;8078;47.822;9.402;2022-10-31T17:02:09;12.30;;;4.50;;
15958;SDS011;8078;47.822;9.402;2022-10-31T17:04:39;7.65;;;4.72;;
15958;SDS011;8078;47.822;9.402;2022-10-31T17:07:04;12.40;;;5.60;;
15958;SDS011;8078;47.822;9.402;2022-10-31T17:09:30;12.95;;;6.72;;
15958;SDS011;8078;47.822;9.402;2022-10-31T17:11:55;13.98;;;7.10;;
15958;SDS011;8078;47.822;9.402;2022-10-31T17:14:21;11.63;;;6.47;;
15958;SDS011;8078;47.822;9.402;2022-10-31T17:16:46;10.38;;;6.85;;
15958;SDS011;8078;47.822;9.402;2022-10-31T17:19:12;10.60;;;6.63;;
15958;SDS011;8078;47.822;9.402;2022-10-31T17:21:38;11.43;;;7.05;;
15958;SDS011;8078;47.822;9.402;2022-10-31T17:24:04;15.80;;;8.10;;
15958;SDS011;8078;47.822;9.402;2022-10-31T17:26:30;14.30;;;7.72;;
15958;SDS011;8078;47.822;9.402;2022-10-31T17:28:56;13.77;;;7.93;;
15958;SDS011;8078;47.822;9.402;2022-10-31T17:31:27;14.05;;;8.57;;
15958;SDS011;8078;47.822;9.402;2022-10-31T17:33:54;16.30;;;7.75;;
15958;SDS011;8078;47.822;9.402;2022-10-31T17:36:20;11.95;;;6.65;;
15958;SDS011;8078;47.822;9.402;2022-10-31T17:38:46;16.27;;;7.00;;
15958;SDS011;8078;47.822;9.402;2022-10-31T17:41:12;11.65;;;5.88;;
15958;SDS011;8078;47.822;9.402;2022-10-31T17:43:37;13.27;;;6.50;;
15958;SDS011;8078;47.822;9.402;2022-10-31T17:46:03;16.02;;;7.28;;
15958;SDS011;8078;47.822;9.402;2022-10-31T17:48:29;10.60;;;8.02;;
15958;SDS011;8078;47.822;9.402;2022-10-31T17:50:58;15.80;;;7.85;;